Time;durP1;ratioP1;P1;durP2;ratioP2;P2;SDS_P1;SDS_P2;PMS_P1;PMS_P2;Temp;Humidity;BMP_temperature;BMP_pressure;BME280_temperature;BME280_humidity;BME280_pressure;Samples;Min_cycle;Max_cycle;Signal;HPM_P1;HPM_P2
2022/05/07 00:02:59;;;;;;;5.33;3.77;;;16.10;99.90;;;;;;1910742;72;22207;-76
2022/05/07 00:06:09;;;;;;;4.47;3.77;;;16.00;99.90;;;;;;1917776;75;21556;-76
2022/05/07 00:09:19;;;;;;;5.03;3.60;;;16.00;99.90;;;;;;1901846;75;21068;-76
2022/05/07 00:12:12;;;;;;;5.80;3.37;;;16.00;99.90;;;;;;1913085;75;21106;-76
2022/05/07 00:18:05;;;;;;;4.95;3.58;;;16.00;99.90;;;;;;1935936;72;22592;-75
2022/05/07 00:21:15;;;;;;;5.55;3.60;;;16.00;99.90;;;;;;1897438;74;21105;-77
2022/05/07 00:24:25;;;;;;;7.37;4.00;;;16.00;99.90;;;;;;1912087;75;21462;-77
2022/05/07 00:27:16;;;;;;;3.98;3.58;;;15.90;99.90;;;;;;1917519;75;21132;-76
2022/05/07 00:33:05;;;;;;;4.50;3.70;;;15.90;99.90;;;;;;1948930;72;22189;-77
2022/05/07 00:36:15;;;;;;;4.10;3.55;;;16.00;99.90;;;;;;1901937;75;21094;-75
2022/05/07 00:39:27;;;;;;;5.83;3.80;;;16.00;99.90;;;;;;1900643;75;21200;-76
2022/05/07 00:42:19;;;;;;;4.20;3.80;;;16.00;99.90;;;;;;1911913;75;21169;-75
2022/05/07 00:48:08;;;;;;;7.17;3.83;;;15.90;99.90;;;;;;1936278;72;22280;-75
2022/05/07 00:51:37;;;;;;;4.75;3.50;;;15.80;99.90;;;;;;1896908;75;21167;-76
2022/05/07 00:54:48;;;;;;;4.67;3.77;;;15.80;99.90;;;;;;1884799;76;21090;-75
2022/05/07 01:00:24;;;;;;;4.95;3.92;;;15.70;99.90;;;;;;1919290;72;38345;-75
2022/05/07 01:03:34;;;;;;;4.30;3.90;;;16.00;99.90;;;;;;1884976;75;21220;-75
2022/05/07 01:06:44;;;;;;;4.90;4.40;;;15.90;99.90;;;;;;1896997;75;21081;-77
2022/05/07 01:09:37;;;;;;;4.67;3.90;;;16.00;99.90;;;;;;1907184;75;21047;-75
2022/05/07 01:15:26;;;;;;;4.33;3.58;;;16.10;99.90;;;;;;1938826;72;22763;-75
2022/05/07 01:18:38;;;;;;;6.62;3.75;;;15.90;99.90;;;;;;1892904;74;21301;-75
2022/05/07 01:21:49;;;;;;;4.17;3.75;;;15.80;99.90;;;;;;1899274;75;21087;-75
2022/05/07 01:24:41;;;;;;;5.58;3.95;;;15.80;99.90;;;;;;1893133;75;21161;-75
2022/05/07 01:27:51;;;;;;;3.98;3.60;;;15.90;99.90;;;;;;1910650;75;21016;-75
2022/05/07 01:30:43;;;;;;;5.47;3.65;;;15.90;99.90;;;;;;1898732;75;21208;-75
2022/05/07 01:33:36;;;;;;;4.90;3.35;;;15.90;99.90;;;;;;1897910;75;21039;-75
2022/05/07 01:36:29;;;;;;;4.58;3.92;;;15.90;99.90;;;;;;1895389;75;21099;-76
2022/05/07 01:39:24;;;;;;;5.08;3.55;;;15.90;99.90;;;;;;1887019;75;21664;-76
2022/05/07 01:42:16;;;;;;;4.80;4.08;;;15.80;99.90;;;;;;1892294;74;21154;-76
2022/05/07 01:45:10;;;;;;;4.53;4.12;;;15.70;99.90;;;;;;1899864;75;21096;-76
2022/05/07 01:48:10;;;;;;;3.60;3.30;;;15.70;99.90;;;;;;1897119;75;21055;-76
2022/05/07 01:53:45;;;;;;;4.25;3.83;;;16.00;99.90;;;;;;1958011;72;22107;-75
2022/05/07 01:56:55;;;;;;;3.67;3.35;;;16.00;99.90;;;;;;1901893;75;21055;-76
2022/05/07 02:00:17;;;;;;;4.95;3.50;;;15.90;99.90;;;;;;1906346;75;21090;-76
2022/05/07 02:03:09;;;;;;;4.78;3.92;;;15.80;99.90;;;;;;1955772;73;21118;-75
2022/05/07 02:08:40;;;;;;;5.12;3.60;;;15.70;99.90;;;;;;1952821;72;22787;-75
2022/05/07 02:11:52;;;;;;;3.75;3.30;;;15.60;99.90;;;;;;1896595;74;21146;-75
2022/05/07 02:15:02;;;;;;;5.17;3.60;;;15.50;99.90;;;;;;1895353;75;21125;-75
2022/05/07 02:17:56;;;;;;;4.95;3.60;;;15.60;99.90;;;;;;1917171;75;21231;-75
2022/05/07 02:21:06;;;;;;;4.83;3.80;;;15.50;99.90;;;;;;1899909;74;21098;-76
2022/05/07 02:23:57;;;;;;;4.47;4.08;;;15.40;99.90;;;;;;1904609;75;21043;-76
2022/05/07 02:26:48;;;;;;;4.80;3.98;;;15.30;99.90;;;;;;1915356;74;21042;-76
2022/05/07 02:29:40;;;;;;;4.83;4.35;;;15.20;99.90;;;;;;1895848;75;21124;-77
2022/05/07 02:32:31;;;;;;;5.25;4.17;;;15.10;99.90;;;;;;1914473;75;21090;-78
2022/05/07 02:35:22;;;;;;;5.92;4.33;;;15.00;99.90;;;;;;1916839;75;21047;-78
2022/05/07 02:38:14;;;;;;;4.50;3.72;;;15.00;99.90;;;;;;1906754;75;21708;-76
2022/05/07 02:46:55;;;;;;;5.40;4.00;;;14.80;99.90;;;;;;1952873;72;22146;-76
2022/05/07 02:50:06;;;;;;;5.50;4.00;;;14.80;99.90;;;;;;1895112;75;21087;-76
2022/05/07 02:53:16;;;;;;;5.03;3.92;;;14.70;99.90;;;;;;1885274;75;21133;-76
2022/05/07 02:56:08;;;;;;;5.20;3.80;;;14.60;99.90;;;;;;1900202;75;21094;-76
2022/05/07 02:59:17;;;;;;;4.03;3.62;;;14.50;99.90;;;;;;1901570;75;21105;-76
2022/05/07 03:02:10;;;;;;;4.75;4.35;;;14.40;99.90;;;;;;1905608;75;21265;-76
2022/05/07 03:05:02;;;;;;;5.42;4.00;;;14.40;99.90;;;;;;1910371;75;21162;-78
2022/05/07 03:07:56;;;;;;;7.58;4.55;;;14.50;99.90;;;;;;1916043;75;21568;-76
2022/05/07 03:13:24;;;;;;;5.12;4.20;;;14.60;99.90;;;;;;1951394;72;22698;-76
2022/05/07 03:16:35;;;;;;;4.03;3.62;;;14.60;99.90;;;;;;1902253;74;21157;-76
2022/05/07 03:19:45;;;;;;;4.62;4.15;;;14.40;99.90;;;;;;1885275;75;21094;-76
2022/05/07 03:22:36;;;;;;;5.53;4.00;;;14.40;99.90;;;;;;1916838;75;21368;-76
2022/05/07 03:28:25;;;;;;;4.10;3.67;;;14.40;99.90;;;;;;1928720;72;22715;-76
2022/05/07 03:31:35;;;;;;;4.72;4.10;;;14.50;99.90;;;;;;1888261;75;21144;-77
2022/05/07 03:34:45;;;;;;;4.30;3.90;;;14.60;99.90;;;;;;1907018;75;21093;-77
2022/05/07 03:37:37;;;;;;;4.42;4.03;;;14.60;99.90;;;;;;1898130;75;21058;-77
2022/05/07 03:40:46;;;;;;;5.62;4.17;;;14.70;99.90;;;;;;1884713;76;21122;-77
2022/05/07 03:43:39;;;;;;;5.17;4.67;;;14.70;99.90;;;;;;1849351;77;21057;-77
2022/05/07 03:46:30;;;;;;;6.35;4.65;;;14.60;99.90;;;;;;1852489;76;21061;-77
2022/05/07 03:49:23;;;;;;;5.00;4.00;;;14.60;99.90;;;;;;1906731;75;21062;-77
2022/05/07 03:55:26;;;;;;;4.70;4.30;;;14.50;99.90;;;;;;1907848;75;21208;-76
2022/05/07 03:58:18;;;;;;;4.87;4.17;;;14.50;99.90;;;;;;1899780;75;21577;-76
2022/05/07 04:03:49;;;;;;;5.80;4.03;;;14.50;99.90;;;;;;1952953;72;22268;-76
2022/05/07 04:06:59;;;;;;;4.97;4.47;;;14.60;99.90;;;;;;1890665;75;21112;-76
2022/05/07 04:10:10;;;;;;;6.33;4.58;;;14.60;99.90;;;;;;1895503;75;21525;-76
2022/05/07 04:13:03;;;;;;;7.30;4.20;;;14.50;99.90;;;;;;1884832;75;21079;-76
2022/05/07 04:18:51;;;;;;;4.47;4.08;;;14.40;99.90;;;;;;1956331;72;22278;-76
2022/05/07 04:24:41;;;;;;;4.92;4.08;;;14.40;99.90;;;;;;1951623;72;22603;-76
2022/05/07 04:27:52;;;;;;;4.92;4.50;;;14.40;99.90;;;;;;1910475;75;21201;-77
2022/05/07 04:31:03;;;;;;;4.55;4.10;;;14.40;99.90;;;;;;1893903;75;21044;-77
2022/05/07 04:33:55;;;;;;;5.80;4.55;;;14.40;99.90;;;;;;1904096;75;21067;-77
2022/05/07 04:37:06;;;;;;;6.50;4.10;;;14.50;99.90;;;;;;1892204;75;21569;-77
2022/05/07 04:39:57;;;;;;;4.83;4.37;;;14.50;99.90;;;;;;1895754;75;21088;-77
2022/05/07 04:42:50;;;;;;;6.22;3.85;;;14.60;99.90;;;;;;1907172;75;21159;-76
2022/05/07 04:45:41;;;;;;;3.90;3.60;;;14.60;99.90;;;;;;1906835;75;21039;-76
2022/05/07 04:48:34;;;;;;;5.83;3.55;;;14.50;99.90;;;;;;1902476;75;21063;-77
2022/05/07 04:54:05;;;;;;;4.12;3.47;;;14.40;99.90;;;;;;1934605;72;22216;-76
2022/05/07 04:59:54;;;;;;;5.53;4.53;;;14.30;99.90;;;;;;1958234;72;22107;-76
2022/05/07 05:03:07;;;;;;;4.37;3.67;;;14.30;99.90;;;;;;1884875;75;21132;-76
2022/05/07 05:06:19;;;;;;;4.60;3.98;;;14.40;99.90;;;;;;1888554;75;21113;-78
2022/05/07 05:09:17;;;;;;;4.45;4.05;;;14.40;99.90;;;;;;1897508;75;21051;-76
2022/05/07 05:15:13;;;;;;;5.65;4.03;;;14.40;99.90;;;;;;1953748;72;22112;-76
2022/05/07 05:18:24;;;;;;;5.42;4.12;;;14.50;99.90;;;;;;1911358;75;21454;-76
2022/05/07 05:21:34;;;;;;;5.22;4.72;;;14.50;99.90;;;;;;1901461;75;21548;-77
2022/05/07 05:24:33;;;;;;;4.42;3.77;;;14.60;99.90;;;;;;1884656;75;21122;-79
2022/05/07 05:27:43;;;;;;;5.87;3.85;;;14.60;99.90;;;;;;1914947;75;21105;-77
2022/05/07 05:33:14;;;;;;;5.22;4.20;;;14.60;99.90;;;;;;1943798;72;22666;-76
2022/05/07 05:39:07;;;;;;;5.05;3.80;;;14.60;99.90;;;;;;1957982;72;22580;-76
2022/05/07 05:44:56;;;;;;;5.67;3.98;;;14.70;99.90;;;;;;1958390;72;22099;-76
2022/05/07 05:48:08;;;;;;;4.65;4.15;;;14.70;99.90;;;;;;1915685;75;21062;-77
2022/05/07 05:53:57;;;;;;;5.03;4.00;;;14.80;99.90;;;;;;1958412;72;22158;-78
2022/05/07 05:57:08;;;;;;;5.85;4.55;;;14.90;99.90;;;;;;1918298;74;21069;-76
2022/05/07 06:00:20;;;;;;;5.60;4.12;;;14.90;99.90;;;;;;1935623;74;21059;-76
2022/05/07 06:03:11;;;;;;;4.72;4.20;;;14.90;99.90;;;;;;1905334;75;21135;-76
2022/05/07 06:06:21;;;;;;;4.87;4.30;;;15.00;99.90;;;;;;1939317;73;21051;-77
2022/05/07 06:09:13;;;;;;;4.72;4.03;;;15.10;99.90;;;;;;1928904;73;21114;-76
2022/05/07 06:14:55;;;;;;;5.42;4.28;;;15.20;99.90;;;;;;1971494;72;22249;-76
2022/05/07 06:18:07;;;;;;;5.55;4.33;;;15.30;99.90;;;;;;1920869;73;21059;-76
2022/05/07 06:21:18;;;;;;;5.00;4.58;;;15.40;99.90;;;;;;1925946;73;21058;-77
2022/05/07 06:27:38;;;;;;;4.50;4.10;;;15.60;99.90;;;;;;1920232;73;21093;-77
2022/05/07 06:30:41;;;;;;;5.12;4.62;;;15.60;99.90;;;;;;1924384;73;21087;-77
2022/05/07 06:33:34;;;;;;;5.03;4.50;;;15.60;99.90;;;;;;1931620;73;21486;-76
2022/05/07 06:39:09;;;;;;;4.55;4.15;;;15.90;99.90;;;;;;1941996;72;22171;-77
2022/05/07 06:42:19;;;;;;;4.80;4.30;;;16.10;99.90;;;;;;1899742;75;21586;-78
2022/05/07 06:48:13;;;;;;;5.55;4.40;;;16.20;99.90;;;;;;1940189;72;22180;-76
2022/05/07 06:51:24;;;;;;;6.00;4.40;;;16.30;99.90;;;;;;1886126;75;21135;-76
2022/05/07 06:54:33;;;;;;;4.70;4.30;;;16.30;99.90;;;;;;1899192;75;21511;-77
2022/05/07 06:57:25;;;;;;;5.60;4.50;;;16.30;99.90;;;;;;1906632;75;21056;-77
2022/05/07 07:03:16;;;;;;;5.72;4.58;;;16.20;99.90;;;;;;1956619;72;22919;-76
2022/05/07 07:09:04;;;;;;;5.40;4.80;;;16.30;99.90;;;;;;1944811;72;22209;-76
2022/05/07 07:12:14;;;;;;;5.75;4.65;;;16.30;99.90;;;;;;1918881;73;21014;-76
2022/05/07 07:18:09;;;;;;;5.28;4.70;;;16.30;99.90;;;;;;1955285;72;22234;-79
2022/05/07 07:21:19;;;;;;;5.08;4.58;;;16.40;99.90;;;;;;1909492;75;21152;-78
2022/05/07 07:24:28;;;;;;;5.40;4.50;;;16.50;99.90;;;;;;1897732;75;21131;-78
2022/05/07 07:27:19;;;;;;;4.80;4.30;;;16.60;99.90;;;;;;1895409;75;21047;-77
2022/05/07 07:33:08;;;;;;;6.08;4.60;;;16.80;99.90;;;;;;1952341;72;22221;-77
2022/05/07 07:36:18;;;;;;;7.92;4.90;;;17.00;99.90;;;;;;1904760;73;21114;-76
2022/05/07 07:39:27;;;;;;;5.22;4.72;;;17.10;99.90;;;;;;1910768;75;21526;-78
2022/05/07 07:42:23;;;;;;;5.40;4.90;;;17.10;99.90;;;;;;1896536;75;21516;-78
2022/05/07 07:48:42;;;;;;;4.97;4.50;;;17.30;99.90;;;;;;1895281;75;21119;-78
2022/05/07 07:51:34;;;;;;;6.65;4.92;;;17.50;99.90;;;;;;1901197;75;21122;-79
2022/05/07 07:54:26;;;;;;;5.22;4.72;;;17.50;99.90;;;;;;1894305;75;21103;-81
2022/05/07 07:59:56;;;;;;;5.20;4.70;;;17.70;99.90;;;;;;1942315;72;22206;-80
2022/05/07 08:05:46;;;;;;;4.90;4.40;;;17.80;99.90;;;;;;1945956;72;22149;-78
2022/05/07 08:15:12;;;;;;;5.30;4.80;;;17.80;99.90;;;;;;1950824;72;22221;-80
2022/05/07 08:18:21;;;;;;;5.15;4.58;;;18.00;99.90;;;;;;1917434;75;21207;-79
2022/05/07 08:21:31;;;;;;;5.65;5.03;;;18.10;99.90;;;;;;1917028;75;21140;-78
2022/05/07 08:24:22;;;;;;;5.17;4.67;;;18.20;99.90;;;;;;1897172;75;21114;-78
2022/05/07 08:30:14;;;;;;;5.58;4.90;;;18.40;99.90;;;;;;1964010;72;22621;-78
2022/05/07 08:33:23;;;;;;;7.05;4.97;;;18.40;99.90;;;;;;1905620;73;21155;-78
2022/05/07 08:36:33;;;;;;;7.60;4.53;;;18.40;99.90;;;;;;1904978;75;21151;-78
2022/05/07 08:39:25;;;;;;;6.78;4.90;;;18.50;99.90;;;;;;1927584;74;21097;-79
2022/05/07 08:42:36;;;;;;;5.37;4.87;;;18.60;99.90;;;;;;1904652;75;21024;-85
2022/05/07 08:48:09;;;;;;;5.17;4.67;;;18.90;99.90;;;;;;1958281;72;22182;-84
2022/05/07 08:51:21;;;;;;;5.78;5.17;;;18.80;99.90;;;;;;1885837;75;21079;-84
2022/05/07 08:54:32;;;;;;;6.65;5.97;;;18.80;99.90;;;;;;1891927;75;21214;-84
2022/05/07 09:00:04;;;;;;;5.53;5.03;;;18.80;99.90;;;;;;1953316;72;22139;-79
2022/05/07 09:05:53;;;;;;;5.58;5.03;;;18.90;99.90;;;;;;1946322;72;22153;-80
2022/05/07 09:09:06;;;;;;;6.53;4.83;;;18.80;99.90;;;;;;1917558;75;21158;-80
2022/05/07 09:12:25;;;;;;;7.15;6.45;;;19.00;99.90;;;;;;1904898;74;21081;-78
2022/05/07 09:18:15;;;;;;;10.28;7.45;;;19.10;99.90;;;;;;1950728;72;22165;-78
2022/05/07 09:24:06;;;;;;;11.68;7.17;;;19.30;99.90;;;;;;1954918;72;22250;-79
2022/05/07 09:27:19;;;;;;;5.25;4.53;;;19.30;99.90;;;;;;1908612;75;21106;-79
2022/05/07 09:30:30;;;;;;;5.60;4.95;;;19.50;99.90;;;;;;1909217;75;21191;-79
2022/05/07 09:33:22;;;;;;;6.40;5.15;;;19.50;99.90;;;;;;1904256;75;21193;-87
2022/05/07 09:39:13;;;;;;;5.62;4.33;;;19.50;99.90;;;;;;1941466;72;22223;-79
2022/05/07 09:42:24;;;;;;;4.22;3.83;;;19.40;99.90;;;;;;1897331;74;21190;-79
2022/05/07 09:48:14;;;;;;;4.47;4.08;;;19.50;99.90;;;;;;1938660;72;22600;-80
2022/05/07 09:51:24;;;;;;;5.15;3.85;;;19.60;99.90;;;;;;1914397;75;21031;-79
2022/05/07 09:57:44;;;;;;;5.72;3.83;;;19.70;99.90;;;;;;1915116;75;21051;-79
2022/05/07 10:03:48;;;;;;;4.15;3.75;;;19.70;99.90;;;;;;1956837;72;22123;-80
2022/05/07 10:09:47;;;;;;;5.08;4.58;;;19.90;99.90;;;;;;1915062;72;28123;-79
2022/05/07 10:13:00;;;;;;;4.95;3.50;;;20.40;99.90;;;;;;1906526;75;21344;-80
2022/05/07 10:16:12;;;;;;;4.72;3.35;;;20.10;99.90;;;;;;1898305;73;21204;-80
2022/05/07 10:19:12;;;;;;;5.75;3.80;;;19.50;99.90;;;;;;1894976;75;21087;-80
2022/05/07 10:25:09;;;;;;;4.35;3.45;;;19.40;99.90;;;;;;1937860;72;22114;-80
2022/05/07 10:28:23;;;;;;;4.03;3.35;;;19.40;99.90;;;;;;1910796;75;21148;-80
2022/05/07 10:31:35;;;;;;;4.20;3.70;;;19.50;99.90;;;;;;1914717;74;21083;-81
2022/05/07 10:34:27;;;;;;;3.95;3.55;;;19.80;99.90;;;;;;1910807;75;21132;-79
2022/05/07 10:37:43;;;;;;;3.75;3.42;;;19.60;99.90;;;;;;1883392;75;21130;-80
2022/05/07 10:43:37;;;;;;;3.40;3.10;;;19.50;99.90;;;;;;1976079;72;22235;-81
2022/05/07 10:46:49;;;;;;;2.72;2.52;;;19.50;99.90;;;;;;1935508;73;21747;-81
2022/05/07 10:50:09;;;;;;;3.92;3.20;;;19.40;99.90;;;;;;1917270;75;21113;-80
2022/05/07 10:53:01;;;;;;;3.85;3.47;;;19.40;99.90;;;;;;1930156;73;21091;-81
2022/05/07 10:56:15;;;;;;;3.98;2.83;;;19.50;99.90;;;;;;1923269;73;21213;-81
2022/05/07 10:59:07;;;;;;;3.47;3.17;;;19.70;99.90;;;;;;1918923;73;21089;-81
2022/05/07 11:02:08;;;;;;;3.05;2.80;;;20.10;99.90;;;;;;1930128;73;21158;-81
2022/05/07 11:05:00;;;;;;;3.37;3.08;;;20.30;99.90;;;;;;1923580;73;21667;-81
2022/05/07 11:07:54;;;;;;;5.62;3.70;;;20.60;99.90;;;;;;1927229;73;21555;-81
2022/05/07 11:13:25;;;;;;;3.20;2.98;;;20.80;99.90;;;;;;1940810;72;22296;-80
2022/05/07 11:16:38;;;;;;;3.90;3.22;;;21.00;99.90;;;;;;1911647;74;21159;-80
2022/05/07 11:19:48;;;;;;;3.45;3.15;;;21.20;99.90;;;;;;1916261;74;21118;-80
2022/05/07 11:25:21;;;;;;;3.50;3.20;;;20.90;99.90;;;;;;1954716;72;22752;-80
2022/05/07 11:28:30;;;;;;;3.98;3.30;;;21.30;99.90;;;;;;1901788;75;21121;-81
2022/05/07 11:34:32;;;;;;;3.80;3.50;;;21.80;99.90;;;;;;1944536;72;22231;-77
2022/05/07 11:37:42;;;;;;;4.92;3.58;;;21.90;99.90;;;;;;1934679;73;21536;-76
2022/05/07 11:41:11;;;;;;;3.45;3.15;;;21.90;99.90;;;;;;1942427;73;21157;-76
2022/05/07 11:47:29;;;;;;;2.90;2.70;;;22.20;99.90;;;;;;1926881;73;21537;-76
2022/05/07 11:50:24;;;;;;;3.30;3.00;;;22.40;99.90;;;;;;1917258;75;21122;-77
2022/05/07 11:53:20;;;;;;;3.58;3.27;;;22.00;99.90;;;;;;1921690;73;21111;-82
2022/05/07 11:58:55;;;;;;;4.05;3.33;;;22.00;99.90;;;;;;1941000;72;22194;-82
2022/05/07 12:04:57;;;;;;;3.47;3.17;;;22.20;99.90;;;;;;1941097;72;22315;-82
2022/05/07 12:08:16;;;;;;;3.20;3.00;;;22.40;99.90;;;;;;1904745;75;21063;-82
2022/05/07 12:11:26;;;;;;;3.33;2.98;;;22.50;99.90;;;;;;1908027;75;21310;-83
2022/05/07 12:14:17;;;;;;;3.75;3.35;;;22.40;99.90;;;;;;1891081;75;21145;-82
2022/05/07 12:35:28;;;;;;;4.28;3.67;;;22.40;99.90;;;;;;1957157;72;22314;-82
2022/05/07 12:38:38;;;;;;;4.05;3.40;;;22.50;99.90;;;;;;1893358;75;21052;-83
2022/05/07 12:41:50;;;;;;;3.83;3.30;;;22.70;99.90;;;;;;1886499;75;21116;-83
2022/05/07 12:44:45;;;;;;;3.52;3.22;;;22.80;99.90;;;;;;1890267;75;21050;-83
2022/05/07 12:48:12;;;;;;;3.10;2.90;;;23.00;99.90;;;;;;1907333;75;21038;-76
2022/05/07 12:53:53;;;;;;;3.77;3.37;;;22.70;99.90;;;;;;1951262;72;22330;-77
2022/05/07 12:57:04;;;;;;;3.62;3.30;;;22.50;99.90;;;;;;1900390;75;21031;-83
2022/05/07 13:00:16;;;;;;;3.30;3.00;;;22.70;99.90;;;;;;1895157;75;21024;-77
2022/05/07 13:03:09;;;;;;;4.20;3.80;;;22.80;99.90;;;;;;1901809;75;21122;-84
2022/05/07 13:06:23;;;;;;;3.90;3.30;;;22.80;99.90;;;;;;1905534;75;21052;-83
2022/05/07 13:09:17;;;;;;;3.50;3.20;;;22.90;99.90;;;;;;1908745;75;21113;-83
2022/05/07 13:12:13;;;;;;;3.90;2.98;;;22.90;99.90;;;;;;1917606;75;21182;-81
2022/05/07 13:15:05;;;;;;;3.42;3.20;;;22.90;99.90;;;;;;1898881;75;21134;-83
2022/05/07 13:17:59;;;;;;;4.55;3.50;;;22.70;99.90;;;;;;1899841;75;21168;-83
2022/05/07 13:23:33;;;;;;;3.58;3.27;;;22.70;99.90;;;;;;1928702;72;22209;-82
2022/05/07 13:26:43;;;;;;;3.27;2.98;;;22.50;99.90;;;;;;1889811;73;21123;-77
2022/05/07 13:29:54;;;;;;;2.92;2.70;;;22.40;99.90;;;;;;1877419;75;21099;-76
2022/05/07 13:32:46;;;;;;;3.77;3.27;;;22.10;99.90;;;;;;1901646;73;21115;-76
2022/05/07 13:35:56;;;;;;;3.60;3.00;;;21.90;99.90;;;;;;1875003;75;21058;-76
2022/05/07 13:38:48;;;;;;;3.42;3.10;;;21.80;99.90;;;;;;1876979;75;21118;-76
2022/05/07 13:44:19;;;;;;;3.72;3.22;;;21.80;99.90;;;;;;1937256;72;22123;-76
2022/05/07 13:47:29;;;;;;;3.15;2.85;;;21.80;99.90;;;;;;1918309;74;21101;-76
2022/05/07 13:53:23;;;;;;;5.22;3.20;;;22.20;99.90;;;;;;1948523;72;22272;-77
2022/05/07 13:59:12;;;;;;;7.53;3.30;;;22.10;99.90;;;;;;1942249;72;22137;-83
2022/05/07 14:02:23;;;;;;;5.42;3.87;;;22.10;99.90;;;;;;1903076;74;21054;-77
2022/05/07 14:08:24;;;;;;;3.92;3.45;;;22.00;99.90;;;;;;1942191;72;22130;-76
2022/05/07 14:11:45;;;;;;;3.60;3.22;;;22.00;99.90;;;;;;1842019;77;21187;-75
2022/05/07 14:14:57;;;;;;;3.42;3.12;;;21.90;99.90;;;;;;1894429;75;21671;-83
2022/05/07 14:17:49;;;;;;;4.12;3.08;;;21.80;99.90;;;;;;1876015;75;21059;-82
2022/05/07 14:23:45;;;;;;;3.97;3.67;;;22.00;99.90;;;;;;1944918;72;27835;-81
2022/05/07 14:26:55;;;;;;;5.12;3.17;;;22.30;99.90;;;;;;1923174;73;21094;-81
2022/05/07 14:30:07;;;;;;;3.52;3.00;;;22.40;99.90;;;;;;1917209;75;21096;-81
2022/05/07 14:32:58;;;;;;;5.22;3.30;;;22.50;99.90;;;;;;1917800;73;21074;-82
2022/05/07 14:36:09;;;;;;;3.75;3.10;;;22.60;99.90;;;;;;1919782;73;21095;-82
2022/05/07 14:39:03;;;;;;;3.30;3.00;;;22.60;99.90;;;;;;1917434;75;21058;-82
2022/05/07 14:41:55;;;;;;;2.87;2.67;;;22.60;99.90;;;;;;1933589;73;21095;-76
2022/05/07 14:44:47;;;;;;;4.72;2.90;;;22.80;99.90;;;;;;1917237;75;21066;-76
2022/05/07 14:50:22;;;;;;;4.40;2.95;;;23.30;99.90;;;;;;1946388;72;22225;-77
2022/05/07 14:53:32;;;;;;;5.17;3.00;;;23.30;99.90;;;;;;1910964;75;21056;-76
2022/05/07 14:59:41;;;;;;;3.22;3.00;;;25.80;99.90;;;;;;1936914;72;20136;-76
2022/05/07 15:02:53;;;;;;;4.85;2.80;;;25.50;99.90;;;;;;1900739;75;21556;-76
2022/05/07 15:06:03;;;;;;;2.98;2.67;;;24.30;99.90;;;;;;1902218;75;21176;-76
2022/05/07 15:12:25;;;;;;;4.45;2.75;;;23.30;99.90;;;;;;1914721;75;21307;-77
2022/05/07 15:15:16;;;;;;;3.67;2.83;;;22.80;99.90;;;;;;1906524;75;21051;-77
2022/05/07 15:18:08;;;;;;;2.70;2.50;;;22.50;99.90;;;;;;1899792;75;21168;-76
2022/05/07 15:21:00;;;;;;;3.60;2.72;;;22.20;99.90;;;;;;1900458;75;21055;-76
2022/05/07 15:23:52;;;;;;;3.05;2.85;;;21.90;99.90;;;;;;1888870;75;21095;-76
2022/05/07 15:26:43;;;;;;;3.15;2.85;;;22.00;99.90;;;;;;1902091;75;21059;-76
2022/05/07 15:29:35;;;;;;;3.30;3.00;;;21.80;99.90;;;;;;1893413;75;21128;-76
2022/05/07 15:38:53;;;;;;;3.40;3.10;;;21.30;99.90;;;;;;1902080;73;21110;-76
2022/05/07 15:41:44;;;;;;;3.50;3.17;;;21.20;99.90;;;;;;1895603;75;21058;-77
2022/05/07 15:47:21;;;;;;;4.00;3.60;;;20.80;99.90;;;;;;1924947;72;27992;-81
2022/05/07 15:50:32;;;;;;;3.92;3.62;;;20.90;99.90;;;;;;1924116;73;21196;-83
2022/05/07 15:53:42;;;;;;;4.42;3.70;;;20.50;99.90;;;;;;1934567;73;21055;-83
2022/05/07 15:56:34;;;;;;;4.95;3.75;;;20.10;99.90;;;;;;1923341;73;21126;-83
2022/05/07 15:59:44;;;;;;;7.58;4.35;;;19.80;99.90;;;;;;1917555;75;21125;-81
2022/05/07 16:02:36;;;;;;;4.35;3.42;;;19.70;99.90;;;;;;1917606;75;21082;-81
2022/05/07 16:05:30;;;;;;;3.10;2.80;;;19.90;99.90;;;;;;1937721;73;21183;-76
2022/05/07 16:08:21;;;;;;;3.60;3.00;;;20.00;99.90;;;;;;1892267;75;21121;-76
2022/05/07 16:11:12;;;;;;;3.08;2.75;;;20.20;99.90;;;;;;1917470;75;21091;-76
2022/05/07 16:14:08;;;;;;;4.70;2.95;;;20.40;99.90;;;;;;1922447;73;21092;-75
2022/05/07 16:17:00;;;;;;;3.22;2.80;;;20.40;99.90;;;;;;1917592;75;21135;-81
2022/05/07 16:19:51;;;;;;;3.22;2.70;;;20.30;99.90;;;;;;1917589;75;21595;-81
2022/05/07 16:25:52;;;;;;;4.60;2.40;;;19.80;99.90;;;;;;1924207;73;21089;-82
2022/05/07 16:28:44;;;;;;;5.08;3.95;;;19.30;99.90;;;;;;1921481;74;21587;-82
2022/05/07 16:34:21;;;;;;;5.95;5.35;;;18.80;99.90;;;;;;1937338;72;28511;-81
2022/05/07 16:37:31;;;;;;;6.37;5.60;;;19.00;99.90;;;;;;1886493;75;21046;-83
2022/05/07 16:40:40;;;;;;;3.50;2.90;;;18.80;99.90;;;;;;1890090;75;21047;-81
2022/05/07 16:43:32;;;;;;;4.22;3.27;;;19.00;99.90;;;;;;1917610;75;21047;-81
2022/05/07 16:46:42;;;;;;;2.75;2.55;;;19.10;99.90;;;;;;1884752;76;21141;-81
2022/05/07 16:49:34;;;;;;;5.83;2.72;;;19.00;99.90;;;;;;1917464;75;21193;-82
2022/05/07 16:52:26;;;;;;;3.75;2.60;;;19.00;99.90;;;;;;1895311;75;21096;-82
2022/05/07 16:55:21;;;;;;;5.03;2.85;;;18.90;99.90;;;;;;1914173;75;21551;-81
2022/05/07 16:58:12;;;;;;;5.08;2.70;;;18.80;99.90;;;;;;1892162;75;21092;-81
2022/05/07 17:01:05;;;;;;;3.92;3.02;;;18.70;99.90;;;;;;1884559;75;21166;-81
2022/05/07 17:03:56;;;;;;;4.28;3.52;;;18.70;99.90;;;;;;1884608;75;21148;-81
2022/05/07 17:06:48;;;;;;;3.65;3.20;;;18.70;99.90;;;;;;1905152;75;21076;-81
2022/05/07 17:09:41;;;;;;;3.17;2.80;;;18.70;99.90;;;;;;1899248;75;21040;-81
2022/05/07 17:12:33;;;;;;;2.95;2.65;;;18.70;99.90;;;;;;1898720;75;21091;-81
2022/05/07 17:15:30;;;;;;;3.42;3.12;;;18.70;99.90;;;;;;1907149;73;21039;-81
2022/05/07 17:18:26;;;;;;;4.53;3.62;;;18.50;99.90;;;;;;1889728;75;21102;-81
2022/05/07 17:21:17;;;;;;;3.20;2.80;;;18.50;99.90;;;;;;1891629;73;21139;-81
2022/05/07 17:24:10;;;;;;;4.30;3.60;;;18.60;99.90;;;;;;1884470;76;21541;-80
2022/05/07 17:27:02;;;;;;;4.20;3.62;;;18.90;99.90;;;;;;1896829;75;21180;-80
2022/05/07 17:29:53;;;;;;;4.15;3.52;;;18.90;99.90;;;;;;1887902;75;21117;-80
2022/05/07 17:32:44;;;;;;;3.75;3.45;;;18.80;99.90;;;;;;1884581;76;21063;-80
2022/05/07 17:35:36;;;;;;;4.42;3.92;;;18.70;99.90;;;;;;1860441;76;21104;-80
2022/05/07 17:38:27;;;;;;;4.78;3.37;;;18.70;99.90;;;;;;1850680;77;21113;-81
2022/05/07 17:41:19;;;;;;;5.15;3.75;;;18.70;99.90;;;;;;1871504;76;21065;-80
2022/05/07 17:44:14;;;;;;;3.98;3.00;;;18.70;99.90;;;;;;1855932;76;21145;-80
2022/05/07 17:47:06;;;;;;;6.80;3.37;;;18.70;99.90;;;;;;1855060;76;21138;-80
2022/05/07 17:49:58;;;;;;;3.27;2.98;;;18.70;99.90;;;;;;1886732;76;21203;-82
2022/05/07 17:52:50;;;;;;;4.87;4.05;;;18.70;99.90;;;;;;1793413;79;21154;-74
2022/05/07 17:55:43;;;;;;;6.15;4.15;;;18.70;99.90;;;;;;1849937;76;21137;-75
2022/05/07 17:58:34;;;;;;;5.05;3.80;;;18.70;99.90;;;;;;1873566;76;21126;-80
2022/05/07 18:01:29;;;;;;;5.15;4.62;;;18.80;99.90;;;;;;1862523;76;21108;-80
2022/05/07 18:04:23;;;;;;;6.22;3.92;;;18.80;99.90;;;;;;1864170;76;21161;-81
2022/05/07 18:07:25;;;;;;;8.20;4.25;;;18.80;99.90;;;;;;1862098;76;21518;-81
2022/05/07 18:12:55;;;;;;;4.83;3.42;;;18.90;99.90;;;;;;1952598;72;22553;-79
2022/05/07 18:16:06;;;;;;;4.90;3.33;;;19.00;99.90;;;;;;1945614;73;21092;-81
2022/05/07 18:19:17;;;;;;;6.03;4.20;;;19.20;99.90;;;;;;1931692;73;21094;-80
2022/05/07 18:22:08;;;;;;;5.75;4.33;;;19.30;99.90;;;;;;1916824;74;21112;-80
2022/05/07 18:25:18;;;;;;;3.70;3.30;;;19.20;99.90;;;;;;1923104;73;21112;-80
2022/05/07 18:28:10;;;;;;;3.90;3.60;;;19.10;99.90;;;;;;1928757;73;21108;-80
2022/05/07 18:31:01;;;;;;;4.10;3.70;;;18.90;99.90;;;;;;1925415;73;21074;-80
2022/05/07 18:33:53;;;;;;;3.47;2.90;;;18.80;99.90;;;;;;1917526;75;21066;-80
2022/05/07 18:43:04;;;;;;;4.35;3.40;;;18.40;99.90;;;;;;1923796;73;21204;-81
2022/05/07 18:45:56;;;;;;;4.53;3.52;;;18.40;99.90;;;;;;1935393;73;21128;-81
2022/05/07 18:48:48;;;;;;;5.72;4.05;;;18.40;99.90;;;;;;1917455;73;21091;-80
2022/05/07 18:51:40;;;;;;;4.28;3.65;;;18.20;99.90;;;;;;1930015;73;21090;-80
2022/05/07 18:54:33;;;;;;;5.60;4.70;;;17.90;99.90;;;;;;1923175;73;21038;-79
2022/05/07 19:00:37;;;;;;;5.92;3.62;;;17.80;99.90;;;;;;1921802;73;21187;-80
2022/05/07 19:03:31;;;;;;;3.85;3.55;;;17.70;99.90;;;;;;1922037;73;21185;-80
2022/05/07 19:06:23;;;;;;;5.33;4.37;;;17.90;99.90;;;;;;1917329;75;21114;-79
2022/05/07 19:09:15;;;;;;;4.33;3.92;;;18.00;99.90;;;;;;1917471;73;21079;-80
2022/05/07 19:12:11;;;;;;;5.00;4.25;;;18.00;99.90;;;;;;1909782;75;21162;-80
2022/05/07 19:15:03;;;;;;;5.78;4.85;;;18.10;99.90;;;;;;1888745;75;21160;-80
2022/05/07 19:17:56;;;;;;;5.78;5.25;;;18.10;99.90;;;;;;1906635;75;21148;-80
2022/05/07 19:20:48;;;;;;;7.03;5.37;;;18.00;99.90;;;;;;1886143;75;21185;-79
2022/05/07 19:23:39;;;;;;;6.15;5.17;;;17.90;99.90;;;;;;1896982;75;21104;-79
2022/05/07 19:26:31;;;;;;;6.28;5.50;;;17.70;99.90;;;;;;1888413;75;21091;-79
2022/05/07 19:29:25;;;;;;;6.65;5.20;;;17.60;99.90;;;;;;1913312;75;21197;-80